Time;durP1;ratioP1;P1;durP2;ratioP2;P2;SDS_P1;SDS_P2;PMS_P1;PMS_P2;Temp;Humidity;BMP_temperature;BMP_pressure;BME280_temperature;BME280_humidity;BME280_pressure;Samples;Min_cycle;Max_cycle;Signal;HPM_P1;HPM_P2
2023/02/25 00:02:07;;;;;;;85.18;42.05;;;358.80;1945.60;;;;;;5052508;28;20425;-70
2023/02/25 00:04:33;;;;;;;24.77;11.82;;;358.80;1971.20;;;;;;5051406;28;20435;-69
2023/02/25 00:06:59;;;;;;;56.20;26.67;;;358.70;2022.40;;;;;;5052530;28;20037;-68
2023/02/25 00:09:25;;;;;;;23.88;9.13;;;358.70;1971.20;;;;;;5052467;28;20364;-70
2023/02/25 00:11:52;;;;;;;74.20;41.92;;;358.70;1971.20;;;;;;5052509;28;20051;-69
2023/02/25 00:14:17;;;;;;;83.60;46.50;;;358.80;1945.60;;;;;;5052408;28;20036;-67
2023/02/25 00:16:43;;;;;;;64.25;38.97;;;358.80;1945.60;;;;;;5052350;28;20029;-70
2023/02/25 00:19:09;;;;;;;46.83;22.45;;;358.80;1971.20;;;;;;5052168;28;20032;-68
2023/02/25 00:21:35;;;;;;;41.42;24.58;;;358.80;1971.20;;;;;;5052428;28;20032;-69
2023/02/25 00:24:02;;;;;;;51.72;33.20;;;358.80;1971.20;;;;;;5052482;28;20049;-70
2023/02/25 00:26:28;;;;;;;39.75;21.75;;;358.80;1971.20;;;;;;5051824;28;20041;-70
2023/02/25 00:28:54;;;;;;;54.72;28.90;;;358.80;1945.60;;;;;;5052284;28;20079;-69
2023/02/25 00:31:22;;;;;;;18.33;9.65;;;358.80;1971.20;;;;;;5051979;28;20029;-68
2023/02/25 00:33:49;;;;;;;16.13;7.82;;;358.80;1971.20;;;;;;5051632;28;20035;-71
2023/02/25 00:36:18;;;;;;;35.72;20.02;;;358.80;1971.20;;;;;;5052023;28;20128;-70
2023/02/25 00:38:52;;;;;;;25.02;13.35;;;358.80;1945.60;;;;;;5051943;28;20025;-70
2023/02/25 00:41:21;;;;;;;23.38;10.23;;;358.70;1971.20;;;;;;5051663;28;20064;-68
2023/02/25 00:43:52;;;;;;;21.92;7.80;;;358.70;1971.20;;;;;;5052029;28;20374;-69
2023/02/25 00:46:19;;;;;;;19.98;10.63;;;358.70;1971.20;;;;;;5047952;28;20049;-70
2023/02/25 00:48:45;;;;;;;19.92;11.45;;;358.60;1971.20;;;;;;5051761;28;20023;-69
2023/02/25 00:51:31;;;;;;;13.52;7.78;;;358.50;1996.80;;;;;;5051907;28;20032;-69
2023/02/25 00:53:58;;;;;;;18.48;7.45;;;358.70;1971.20;;;;;;5051459;28;20510;-70
2023/02/25 00:56:25;;;;;;;20.83;8.30;;;358.60;1996.80;;;;;;5051792;28;20036;-68
2023/02/25 00:58:51;;;;;;;28.45;12.13;;;358.60;1971.20;;;;;;5051598;28;20067;-69
2023/02/25 01:01:29;;;;;;;24.38;15.20;;;358.60;1971.20;;;;;;5051375;28;20479;-69
2023/02/25 01:03:56;;;;;;;13.98;8.30;;;358.60;1971.20;;;;;;5051597;28;20036;-71
2023/02/25 01:06:23;;;;;;;10.23;6.47;;;358.60;1996.80;;;;;;5051218;28;20029;-70
2023/02/25 01:08:49;;;;;;;21.35;9.30;;;358.70;1971.20;;;;;;5051381;28;20017;-68
2023/02/25 01:11:15;;;;;;;15.90;9.27;;;358.70;1971.20;;;;;;5050980;28;20461;-67
2023/02/25 01:13:42;;;;;;;14.85;8.73;;;358.70;1971.20;;;;;;5051230;28;20033;-68
2023/02/25 01:16:16;;;;;;;17.55;7.88;;;358.80;1971.20;;;;;;5050923;28;20021;-69
2023/02/25 01:18:42;;;;;;;16.30;6.93;;;358.70;1996.80;;;;;;5034058;28;20399;-68
2023/02/25 01:21:16;;;;;;;20.33;8.10;;;358.80;1971.20;;;;;;5051111;28;20028;-69
2023/02/25 01:23:47;;;;;;;13.95;7.38;;;358.70;1971.20;;;;;;5049907;28;20029;-68
2023/02/25 01:26:14;;;;;;;21.65;7.00;;;358.80;1996.80;;;;;;5030876;28;20041;-68
2023/02/25 01:28:39;;;;;;;14.23;7.30;;;358.80;1945.60;;;;;;5033387;28;20175;-71
2023/02/25 01:31:07;;;;;;;19.35;9.65;;;358.80;1996.80;;;;;;5039086;28;20120;-70
2023/02/25 01:33:37;;;;;;;16.70;8.50;;;358.80;1971.20;;;;;;5039369;28;20021;-71
2023/02/25 01:36:05;;;;;;;24.83;13.05;;;358.70;1971.20;;;;;;5040687;28;20021;-70
2023/02/25 01:38:32;;;;;;;43.03;21.23;;;358.80;1971.20;;;;;;5039668;28;20044;-72
2023/02/25 01:40:59;;;;;;;12.07;5.47;;;358.80;1971.20;;;;;;5041125;28;20458;-68
2023/02/25 01:43:27;;;;;;;11.70;6.45;;;358.80;1971.20;;;;;;5050491;28;20120;-71
2023/02/25 01:45:54;;;;;;;26.15;15.15;;;358.80;1996.80;;;;;;5050803;28;20053;-70
2023/02/25 01:48:23;;;;;;;38.88;18.70;;;358.90;1971.20;;;;;;5034072;28;20120;-70
2023/02/25 01:50:53;;;;;;;25.80;12.10;;;358.90;1945.60;;;;;;5030818;28;20065;-70
2023/02/25 01:53:32;;;;;;;25.30;13.52;;;358.90;1945.60;;;;;;5030707;28;20017;-69
2023/02/25 01:56:00;;;;;;;38.03;19.83;;;359.00;1945.60;;;;;;5030584;28;20026;-69
2023/02/25 01:58:26;;;;;;;30.48;16.13;;;359.00;1945.60;;;;;;5030408;28;20372;-71
2023/02/25 02:00:54;;;;;;;18.27;9.85;;;359.00;1945.60;;;;;;5030798;28;20105;-70
2023/02/25 02:03:25;;;;;;;35.78;18.67;;;359.00;1945.60;;;;;;5030411;28;20030;-71
2023/02/25 02:06:01;;;;;;;19.20;7.18;;;359.00;1945.60;;;;;;5030612;28;20124;-70
2023/02/25 02:08:29;;;;;;;15.90;7.05;;;359.00;1945.60;;;;;;5030485;28;20363;-70
2023/02/25 02:10:56;;;;;;;29.05;17.83;;;359.00;1971.20;;;;;;5030430;28;20049;-70
2023/02/25 02:13:23;;;;;;;25.02;12.05;;;358.90;1971.20;;;;;;5030542;28;20075;-67
2023/02/25 02:16:03;;;;;;;27.42;12.90;;;358.90;1971.20;;;;;;5030247;28;20460;-68
2023/02/25 02:18:33;;;;;;;25.23;15.85;;;358.90;1971.20;;;;;;5030176;28;20029;-68
2023/02/25 02:21:29;;;;;;;25.17;12.73;;;358.90;1971.20;;;;;;5030159;28;20053;-68
2023/02/25 02:24:23;;;;;;;15.48;7.28;;;358.90;1971.20;;;;;;5030265;28;20479;-71
2023/02/25 02:27:03;;;;;;;29.30;10.50;;;359.00;1945.60;;;;;;5030166;28;20045;-70
2023/02/25 02:29:42;;;;;;;17.85;10.20;;;359.00;1945.60;;;;;;5017918;28;20021;-71
2023/02/25 02:32:23;;;;;;;16.60;10.10;;;358.90;1971.20;;;;;;5034341;28;20400;-68
2023/02/25 02:34:48;;;;;;;24.33;13.32;;;358.80;1996.80;;;;;;5034250;28;20088;-69
2023/02/25 02:37:26;;;;;;;17.20;7.93;;;358.80;1996.80;;;;;;5034423;28;20475;-68
2023/02/25 02:40:04;;;;;;;19.27;9.32;;;358.80;1971.20;;;;;;5034329;28;20025;-69
2023/02/25 02:42:58;;;;;;;17.48;10.32;;;358.90;1971.20;;;;;;5034730;28;20048;-71
2023/02/25 02:45:38;;;;;;;26.85;16.70;;;358.90;2022.40;;;;;;4953792;29;20142;-71
2023/02/25 02:48:16;;;;;;;25.02;16.38;;;358.70;2022.40;;;;;;4971316;28;20051;-70
2023/02/25 02:50:49;;;;;;;27.00;14.57;;;358.80;2022.40;;;;;;4973159;28;20496;-71
2023/02/25 02:53:31;;;;;;;22.00;9.70;;;358.90;1996.80;;;;;;4973390;28;20717;-69
2023/02/25 02:56:01;;;;;;;22.88;11.25;;;358.90;1996.80;;;;;;4972994;28;20069;-70
2023/02/25 02:58:51;;;;;;;16.20;8.18;;;358.90;2048.00;;;;;;4972933;28;20027;-70
2023/02/25 03:01:23;;;;;;;12.63;7.20;;;358.90;1996.80;;;;;;4972839;28;20029;-70
2023/02/25 03:03:58;;;;;;;34.20;20.73;;;359.00;1996.80;;;;;;4972540;28;20039;-70
2023/02/25 03:06:30;;;;;;;13.93;9.27;;;359.00;2022.40;;;;;;4972799;28;20117;-69
2023/02/25 03:09:21;;;;;;;26.58;14.50;;;359.00;2048.00;;;;;;4972684;28;20039;-71
2023/02/25 03:11:47;;;;;;;18.23;9.45;;;359.10;2022.40;;;;;;4972119;28;20035;-69
2023/02/25 03:14:13;;;;;;;36.70;19.52;;;359.10;2022.40;;;;;;4972725;28;20039;-68
2023/02/25 03:17:05;;;;;;;12.77;8.13;;;359.20;2022.40;;;;;;4972488;28;20082;-69
2023/02/25 03:19:33;;;;;;;33.10;19.15;;;359.20;2022.40;;;;;;4969627;28;20035;-71
2023/02/25 03:22:15;;;;;;;22.30;14.75;;;359.20;2022.40;;;;;;5002552;28;20040;-69
2023/02/25 03:24:59;;;;;;;13.80;8.75;;;359.30;2022.40;;;;;;5053572;28;20390;-70
2023/02/25 03:27:38;;;;;;;29.58;16.33;;;359.30;2022.40;;;;;;5053137;28;20037;-68
2023/02/25 03:30:25;;;;;;;25.08;10.85;;;359.20;2022.40;;;;;;5053275;28;20474;-68
2023/02/25 03:33:08;;;;;;;20.63;11.60;;;359.30;2022.40;;;;;;5053245;28;20028;-68
2023/02/25 03:35:35;;;;;;;19.33;9.88;;;359.30;2022.40;;;;;;5053210;28;20028;-70
2023/02/25 03:38:06;;;;;;;33.47;17.75;;;359.30;2022.40;;;;;;5053098;28;20386;-70
2023/02/25 03:40:34;;;;;;;25.35;15.23;;;359.30;2022.40;;;;;;5053175;28;20040;-70
2023/02/25 03:43:10;;;;;;;45.80;24.02;;;359.30;2048.00;;;;;;5052609;28;20033;-70
2023/02/25 03:45:38;;;;;;;31.67;17.95;;;359.30;2022.40;;;;;;5052814;28;20371;-69
2023/02/25 03:48:04;;;;;;;29.00;19.08;;;359.20;2048.00;;;;;;5052748;28;20052;-71
2023/02/25 03:50:41;;;;;;;20.92;10.40;;;359.20;2048.00;;;;;;5052915;28;20140;-70
2023/02/25 03:53:06;;;;;;;23.00;11.40;;;359.10;2073.60;;;;;;5052174;28;20486;-70
2023/02/25 03:55:33;;;;;;;21.33;10.90;;;359.10;2073.60;;;;;;5039142;28;20040;-70
2023/02/25 03:57:58;;;;;;;24.85;16.05;;;359.00;2073.60;;;;;;5032765;28;20056;-70
2023/02/25 04:00:30;;;;;;;21.77;12.32;;;359.00;2073.60;;;;;;5032825;28;20026;-69
2023/02/25 04:02:56;;;;;;;37.10;23.88;;;358.90;2099.20;;;;;;5032684;28;20025;-69
2023/02/25 04:05:27;;;;;;;22.15;14.00;;;358.90;2099.20;;;;;;5032630;28;22414;-71
2023/02/25 04:07:54;;;;;;;14.55;9.20;;;359.00;2073.60;;;;;;5032822;28;20025;-69
2023/02/25 04:10:20;;;;;;;27.30;12.50;;;358.90;2073.60;;;;;;5032441;28;20037;-70
2023/02/25 04:12:46;;;;;;;21.00;12.43;;;359.00;2073.60;;;;;;5032456;28;20029;-70
2023/02/25 04:15:13;;;;;;;26.75;13.18;;;359.00;2073.60;;;;;;5032700;28;20360;-69
2023/02/25 04:17:39;;;;;;;30.38;14.90;;;358.90;2073.60;;;;;;5032402;28;20171;-70
2023/02/25 04:20:05;;;;;;;31.13;13.10;;;359.00;2048.00;;;;;;5032569;28;20032;-70
2023/02/25 04:22:32;;;;;;;17.77;12.07;;;359.00;2048.00;;;;;;5032416;28;20037;-68
2023/02/25 04:24:58;;;;;;;21.48;8.50;;;359.00;2073.60;;;;;;5032266;28;20022;-70
2023/02/25 04:27:23;;;;;;;25.15;9.90;;;358.90;2073.60;;;;;;5032215;28;20542;-69
2023/02/25 04:29:49;;;;;;;15.57;8.27;;;358.80;2073.60;;;;;;5032319;28;20053;-70
2023/02/25 04:32:15;;;;;;;32.85;19.55;;;358.80;2099.20;;;;;;5032377;28;20375;-70
2023/02/25 04:34:40;;;;;;;24.23;9.48;;;358.80;2073.60;;;;;;5032234;28;20037;-70
2023/02/25 04:37:08;;;;;;;30.20;16.95;;;358.80;2073.60;;;;;;5032020;28;20033;-69
2023/02/25 04:39:33;;;;;;;93.57;47.53;;;358.80;2073.60;;;;;;5013538;28;20423;-71
2023/02/25 04:41:59;;;;;;;28.73;14.43;;;358.80;2073.60;;;;;;5031700;28;20063;-70
2023/02/25 04:44:25;;;;;;;18.13;10.13;;;358.80;2099.20;;;;;;5032089;28;20064;-71
2023/02/25 04:46:51;;;;;;;18.73;10.07;;;358.80;2073.60;;;;;;5032005;28;20084;-70
2023/02/25 04:49:21;;;;;;;31.08;17.02;;;358.80;2048.00;;;;;;5031719;28;20029;-70
2023/02/25 04:51:48;;;;;;;35.55;18.30;;;358.80;2073.60;;;;;;5031269;28;20040;-71
2023/02/25 04:54:14;;;;;;;32.83;16.00;;;358.90;2048.00;;;;;;5031905;28;20022;-70
2023/02/25 04:56:40;;;;;;;34.33;17.25;;;358.90;2048.00;;;;;;5031935;28;20079;-70
2023/02/25 04:59:06;;;;;;;15.80;8.68;;;358.90;2048.00;;;;;;5031778;28;20029;-70
2023/02/25 05:01:32;;;;;;;27.40;16.13;;;358.90;2048.00;;;;;;5031940;28;20475;-68
2023/02/25 05:03:59;;;;;;;21.80;11.18;;;358.90;2048.00;;;;;;5031470;28;20056;-69
2023/02/25 05:06:28;;;;;;;19.00;9.88;;;358.90;2048.00;;;;;;5031340;28;20095;-69
2023/02/25 05:08:56;;;;;;;27.60;11.65;;;358.90;2048.00;;;;;;5031657;28;20356;-68
2023/02/25 05:11:24;;;;;;;24.10;12.43;;;358.90;2048.00;;;;;;5031380;28;20033;-70
2023/02/25 05:13:50;;;;;;;20.90;10.23;;;358.90;2048.00;;;;;;5031458;28;20486;-69
2023/02/25 05:16:17;;;;;;;33.08;16.50;;;358.80;2073.60;;;;;;5031316;28;20041;-69
2023/02/25 05:18:45;;;;;;;39.58;20.65;;;358.80;2073.60;;;;;;5031278;28;20383;-69
2023/02/25 05:21:17;;;;;;;48.42;22.30;;;358.80;2073.60;;;;;;5031343;28;20037;-71
2023/02/25 05:23:44;;;;;;;101.88;59.47;;;358.80;2073.60;;;;;;5031311;28;20479;-69
2023/02/25 05:26:11;;;;;;;23.90;14.05;;;358.80;2099.20;;;;;;5031270;28;20044;-71
2023/02/25 05:28:37;;;;;;;17.25;9.68;;;358.80;2073.60;;;;;;5031009;28;20027;-70
2023/02/25 05:31:04;;;;;;;22.40;11.20;;;358.80;2048.00;;;;;;5031285;28;20021;-69
2023/02/25 05:33:30;;;;;;;24.45;11.25;;;358.80;2048.00;;;;;;5031110;28;20032;-70
2023/02/25 05:35:55;;;;;;;47.75;24.63;;;358.90;2048.00;;;;;;5030927;28;20037;-70
2023/02/25 05:38:21;;;;;;;37.08;22.88;;;358.90;2048.00;;;;;;5030777;28;20029;-70
2023/02/25 05:40:47;;;;;;;24.33;14.18;;;358.90;2048.00;;;;;;5030801;28;20025;-70
2023/02/25 05:43:13;;;;;;;22.23;13.40;;;358.90;2022.40;;;;;;5030836;28;20033;-69
2023/02/25 05:45:38;;;;;;;42.20;25.35;;;359.00;2022.40;;;;;;5030832;28;20091;-70
2023/02/25 05:48:04;;;;;;;29.30;14.15;;;358.90;2048.00;;;;;;5030668;28;20071;-69
2023/02/25 05:50:33;;;;;;;26.42;15.60;;;359.00;2048.00;;;;;;5031055;28;20038;-69
2023/02/25 05:52:59;;;;;;;39.35;15.48;;;358.90;2022.40;;;;;;5030537;28;20470;-70
2023/02/25 05:55:25;;;;;;;39.45;26.08;;;358.90;2048.00;;;;;;5031053;28;20104;-71
2023/02/25 05:57:51;;;;;;;35.40;22.52;;;358.90;2048.00;;;;;;5031133;28;20112;-70
2023/02/25 06:00:20;;;;;;;34.90;19.27;;;358.80;2048.00;;;;;;5030430;28;20057;-69
2023/02/25 06:02:47;;;;;;;37.17;20.30;;;358.80;2048.00;;;;;;5029980;28;20104;-70
2023/02/25 06:05:12;;;;;;;31.48;15.10;;;358.90;2048.00;;;;;;5030731;28;20026;-70
2023/02/25 06:07:38;;;;;;;30.73;18.75;;;358.90;2048.00;;;;;;5030902;28;20476;-70
2023/02/25 06:10:04;;;;;;;20.92;12.15;;;358.90;2048.00;;;;;;5036303;28;20505;-68
2023/02/25 06:12:32;;;;;;;31.85;16.80;;;359.10;2022.40;;;;;;5070678;28;20033;-71
2023/02/25 06:14:58;;;;;;;25.42;15.07;;;359.10;2022.40;;;;;;5073940;28;20020;-72
2023/02/25 06:17:24;;;;;;;24.65;13.45;;;359.20;1996.80;;;;;;5075185;28;20489;-73
2023/02/25 06:19:51;;;;;;;36.22;17.45;;;359.20;1996.80;;;;;;5072338;28;20107;-72
2023/02/25 06:22:21;;;;;;;32.53;18.85;;;359.30;1996.80;;;;;;5072400;28;20021;-72
2023/02/25 06:24:46;;;;;;;33.90;19.88;;;359.30;1996.80;;;;;;5072701;28;20103;-72
2023/02/25 06:27:13;;;;;;;52.10;27.73;;;359.30;1996.80;;;;;;5072536;28;20450;-72
2023/02/25 06:29:40;;;;;;;29.42;13.90;;;359.20;1996.80;;;;;;5070376;28;20021;-69
2023/02/25 06:32:15;;;;;;;44.08;19.85;;;359.20;1996.80;;;;;;5070196;28;20546;-70
2023/02/25 06:34:41;;;;;;;42.47;27.92;;;359.30;1996.80;;;;;;5070452;28;20128;-72
2023/02/25 06:37:07;;;;;;;54.25;34.97;;;359.30;1996.80;;;;;;5070053;28;20060;-69
2023/02/25 06:39:33;;;;;;;34.25;21.33;;;359.30;2048.00;;;;;;5070214;28;20355;-69
2023/02/25 06:41:58;;;;;;;48.95;34.33;;;359.30;1996.80;;;;;;5063996;28;20036;-68
2023/02/25 06:44:26;;;;;;;46.13;41.05;;;359.30;2022.40;;;;;;5049804;28;20495;-70
2023/02/25 06:46:54;;;;;;;65.15;48.03;;;359.30;2022.40;;;;;;5040383;28;20053;-71
2023/02/25 06:49:21;;;;;;;63.97;40.90;;;359.30;2022.40;;;;;;5030057;28;20026;-70
2023/02/25 06:51:48;;;;;;;50.28;37.45;;;359.30;2022.40;;;;;;5029911;28;20125;-70
2023/02/25 06:54:14;;;;;;;74.18;55.55;;;384.00;2022.40;;;;;;5030210;28;20021;-70
2023/02/25 06:56:41;;;;;;;62.33;46.17;;;384.00;2022.40;;;;;;5030252;28;20040;-70
2023/02/25 06:59:07;;;;;;;51.78;37.65;;;384.00;2022.40;;;;;;5030162;28;20017;-69
2023/02/25 07:01:32;;;;;;;53.58;33.63;;;384.00;2022.40;;;;;;5030279;28;20043;-71
2023/02/25 07:03:58;;;;;;;47.30;35.72;;;384.10;2022.40;;;;;;5030025;28;20083;-70
2023/02/25 07:06:24;;;;;;;51.60;42.05;;;384.10;1996.80;;;;;;5029878;28;20034;-70
2023/02/25 07:08:49;;;;;;;56.42;45.67;;;384.10;1996.80;;;;;;5030071;28;20026;-70
2023/02/25 07:11:18;;;;;;;78.82;61.58;;;384.20;1996.80;;;;;;5029746;28;20025;-71
2023/02/25 07:13:46;;;;;;;82.13;64.80;;;384.20;1996.80;;;;;;5031148;28;20433;-70
2023/02/25 07:16:13;;;;;;;74.43;58.78;;;384.20;1996.80;;;;;;5033667;28;20033;-70
2023/02/25 07:18:40;;;;;;;89.43;58.97;;;384.30;1996.80;;;;;;5033507;28;20025;-69
2023/02/25 07:21:06;;;;;;;77.78;57.28;;;384.30;1996.80;;;;;;5033497;28;20060;-71
2023/02/25 07:23:32;;;;;;;94.68;72.25;;;384.30;1996.80;;;;;;5033579;28;20375;-71
2023/02/25 07:26:05;;;;;;;78.53;57.88;;;384.40;1996.80;;;;;;5033321;28;20033;-70
2023/02/25 07:28:31;;;;;;;;;;;384.40;1996.80;;;;;;5034069;28;20053;-70
2023/02/25 07:31:01;;;;;;;117.55;82.97;;;384.50;1996.80;;;;;;5033363;28;19905;-70
2023/02/25 07:33:30;;;;;;;124.32;93.80;;;384.40;1996.80;;;;;;5033322;28;20028;-70
2023/02/25 07:35:56;;;;;;;72.18;53.78;;;384.40;1996.80;;;;;;5033090;28;20032;-71
2023/02/25 07:38:22;;;;;;;79.70;59.60;;;384.50;1996.80;;;;;;5033701;28;20029;-71
2023/02/25 07:40:48;;;;;;;68.72;48.92;;;384.60;1996.80;;;;;;5033260;28;20055;-70
2023/02/25 07:43:14;;;;;;;68.00;47.28;;;384.60;1996.80;;;;;;5033193;28;20480;-69
2023/02/25 07:45:39;;;;;;;137.40;101.80;;;384.70;1996.80;;;;;;5033036;28;20029;-68
2023/02/25 07:48:05;;;;;;;68.32;48.38;;;384.70;1996.80;;;;;;5033037;28;20049;-69
2023/02/25 07:50:32;;;;;;;48.95;32.20;;;384.90;1971.20;;;;;;5033181;28;20061;-71
2023/02/25 07:52:58;;;;;;;54.67;38.67;;;409.60;1996.80;;;;;;5032957;28;20458;-70
2023/02/25 07:55:23;;;;;;;61.60;53.72;;;409.70;1971.20;;;;;;5032933;28;20121;-70
2023/02/25 07:57:49;;;;;;;48.30;36.05;;;409.80;1945.60;;;;;;5032852;28;20060;-70
2023/02/25 08:00:16;;;;;;;18.60;7.75;;;410.00;1945.60;;;;;;5033120;28;20108;-71
2023/02/25 08:02:43;;;;;;;13.63;7.20;;;410.20;1971.20;;;;;;5033099;28;20476;-69
2023/02/25 08:05:09;;;;;;;25.20;13.38;;;410.30;1920.00;;;;;;5032723;28;20041;-70
2023/02/25 08:07:35;;;;;;;20.92;10.52;;;410.30;1920.00;;;;;;5032479;28;20033;-69
2023/02/25 08:10:01;;;;;;;25.08;18.38;;;410.30;1920.00;;;;;;5033015;28;20083;-69
2023/02/25 08:12:27;;;;;;;52.88;28.35;;;410.40;1920.00;;;;;;5032327;28;20482;-70
2023/02/25 08:14:52;;;;;;;136.75;91.45;;;410.40;1920.00;;;;;;5032720;28;20037;-69
2023/02/25 08:17:18;;;;;;;131.48;100.95;;;410.20;1971.20;;;;;;5032230;28;20112;-70
2023/02/25 08:19:45;;;;;;;135.65;98.55;;;410.20;1971.20;;;;;;5032557;28;20026;-71
2023/02/25 08:22:11;;;;;;;122.80;87.93;;;410.20;1971.20;;;;;;5032361;28;20032;-70
2023/02/25 08:24:38;;;;;;;94.43;67.90;;;410.00;1996.80;;;;;;5031825;28;20033;-70
2023/02/25 08:27:07;;;;;;;115.90;80.80;;;410.00;1971.20;;;;;;5031877;28;20030;-70
2023/02/25 08:29:35;;;;;;;100.85;65.55;;;410.20;1971.20;;;;;;5030107;28;20557;-70
2023/02/25 08:32:01;;;;;;;102.15;63.10;;;410.30;1971.20;;;;;;5030102;28;20414;-69
2023/02/25 08:34:26;;;;;;;86.43;56.28;;;410.30;1971.20;;;;;;5029905;28;20029;-70
2023/02/25 08:36:52;;;;;;;79.97;54.03;;;410.30;2022.40;;;;;;5029932;28;20033;-69
2023/02/25 08:39:18;;;;;;;80.50;49.72;;;410.20;2022.40;;;;;;5029986;28;20384;-69
2023/02/25 08:41:43;;;;;;;66.95;41.22;;;410.20;1996.80;;;;;;5029446;28;20025;-70
2023/02/25 08:44:10;;;;;;;68.85;43.53;;;410.20;1996.80;;;;;;5029761;28;20029;-68
2023/02/25 08:46:36;;;;;;;96.75;69.95;;;410.30;2073.60;;;;;;5029730;28;20057;-70
2023/02/25 08:49:03;;;;;;;166.52;119.32;;;410.20;2099.20;;;;;;5029797;28;20560;-69
2023/02/25 08:51:33;;;;;;;159.18;112.13;;;410.10;2048.00;;;;;;5029419;28;20029;-71
2023/02/25 08:54:05;;;;;;;152.75;107.82;;;410.10;2048.00;;;;;;5011267;28;20088;-70
2023/02/25 08:56:31;;;;;;;161.55;122.28;;;410.10;2048.00;;;;;;5029358;28;20032;-70
2023/02/25 08:58:57;;;;;;;133.15;102.28;;;410.20;2048.00;;;;;;5029565;28;20439;-69
2023/02/25 09:01:23;;;;;;;123.72;83.72;;;410.30;2048.00;;;;;;5029726;28;20060;-68
2023/02/25 09:03:52;;;;;;;108.85;73.28;;;410.30;2022.40;;;;;;5029409;28;20029;-70
2023/02/25 09:06:20;;;;;;;101.65;69.45;;;410.30;2022.40;;;;;;5029112;28;20045;-71
2023/02/25 09:08:46;;;;;;;92.25;58.22;;;410.40;1996.80;;;;;;5028984;28;20030;-70
2023/02/25 09:11:12;;;;;;;116.38;88.60;;;410.50;1996.80;;;;;;5029263;28;20080;-71
2023/02/25 09:13:38;;;;;;;145.60;105.45;;;435.30;1971.20;;;;;;5029030;28;20045;-68
2023/02/25 09:16:04;;;;;;;192.73;136.93;;;435.30;1971.20;;;;;;5029362;28;20025;-69
2023/02/25 09:18:30;;;;;;;83.38;57.85;;;435.30;1971.20;;;;;;5029048;28;20175;-71
2023/02/25 09:20:56;;;;;;;119.65;85.05;;;435.30;1945.60;;;;;;5028506;28;20033;-71
2023/02/25 09:23:22;;;;;;;181.25;127.97;;;410.50;1971.20;;;;;;5030292;28;20025;-63
2023/02/25 09:25:47;;;;;;;231.45;170.57;;;410.30;1996.80;;;;;;5031076;28;20040;-64
2023/02/25 09:28:13;;;;;;;245.63;172.48;;;410.30;2022.40;;;;;;5031479;28;20037;-63
2023/02/25 09:30:39;;;;;;;186.63;130.07;;;410.50;2048.00;;;;;;5031013;28;20063;-64
2023/02/25 09:33:05;;;;;;;118.78;86.13;;;410.30;2048.00;;;;;;5031310;28;20936;-63
2023/02/25 09:35:30;;;;;;;147.80;103.38;;;410.20;2048.00;;;;;;5030941;28;20037;-64
2023/02/25 09:37:57;;;;;;;164.30;121.10;;;410.30;2048.00;;;;;;5030596;28;20471;-64
2023/02/25 09:40:23;;;;;;;137.95;98.38;;;410.50;2073.60;;;;;;5031062;28;20026;-65
2023/02/25 09:43:01;;;;;;;145.98;108.25;;;410.50;2099.20;;;;;;5030650;28;20087;-67
2023/02/25 09:45:32;;;;;;;206.55;135.95;;;435.30;2073.60;;;;;;5044808;28;20132;-64
2023/02/25 09:48:00;;;;;;;111.32;80.82;;;435.70;2048.00;;;;;;5050552;28;20566;-64
2023/02/25 09:50:37;;;;;;;122.07;82.32;;;435.90;2022.40;;;;;;5050529;28;20025;-66
2023/02/25 09:53:22;;;;;;;86.90;57.15;;;436.00;1996.80;;;;;;5050645;28;20021;-66
2023/02/25 09:55:50;;;;;;;132.93;95.25;;;460.90;1996.80;;;;;;5050396;28;20459;-64
2023/02/25 09:58:48;;;;;;;107.65;74.95;;;461.00;1996.80;;;;;;5050143;28;20471;-64
2023/02/25 10:01:26;;;;;;;55.00;31.08;;;461.30;1971.20;;;;;;5050611;28;20025;-62
2023/02/25 10:04:29;;;;;;;115.55;82.63;;;461.50;1868.80;;;;;;5050463;28;20100;-63
2023/02/25 10:07:00;;;;;;;107.80;73.88;;;461.00;1945.60;;;;;;5050424;28;20039;-63
2023/02/25 10:09:31;;;;;;;106.85;71.72;;;460.80;1945.60;;;;;;5050168;28;20021;-65
2023/02/25 10:12:23;;;;;;;64.80;40.63;;;436.00;1945.60;;;;;;5050001;28;20551;-64
2023/02/25 10:15:23;;;;;;;77.93;54.63;;;461.10;1894.40;;;;;;5050373;28;20363;-63
2023/02/25 10:18:26;;;;;;;89.18;66.95;;;461.50;1868.80;;;;;;5049825;28;20037;-64
2023/02/25 10:21:01;;;;;;;61.67;39.07;;;461.70;1868.80;;;;;;5050403;28;20025;-66
2023/02/25 10:23:34;;;;;;;93.82;66.60;;;486.70;1817.60;;;;;;5050080;28;20254;-67
2023/02/25 10:26:16;;;;;;;41.72;24.40;;;486.70;1843.20;;;;;;5049968;28;20471;-66
2023/02/25 10:28:43;;;;;;;40.90;24.27;;;486.60;1766.40;;;;;;5050403;28;20033;-65
2023/02/25 10:31:17;;;;;;;30.88;17.88;;;486.60;1766.40;;;;;;5050045;28;20029;-66
2023/02/25 10:33:45;;;;;;;63.00;39.78;;;486.80;1715.20;;;;;;5050100;28;20486;-65
2023/02/25 10:36:16;;;;;;;75.05;57.38;;;486.90;1689.60;;;;;;5049918;28;20083;-64
2023/02/25 10:38:47;;;;;;;14.98;8.45;;;486.90;1638.40;;;;;;5050011;28;20043;-67
2023/02/25 10:41:13;;;;;;;16.42;9.43;;;487.00;1638.40;;;;;;5049930;28;20032;-62
2023/02/25 10:43:39;;;;;;;57.90;34.83;;;486.80;1638.40;;;;;;5050024;28;20033;-61
2023/02/25 10:46:17;;;;;;;36.83;20.75;;;486.90;1638.40;;;;;;5049651;28;20037;-61
2023/02/25 10:48:51;;;;;;;22.13;14.23;;;486.90;1638.40;;;;;;5051172;28;20037;-62
2023/02/25 10:51:17;;;;;;;23.33;13.38;;;486.80;1612.80;;;;;;5053826;28;20347;-62
2023/02/25 10:53:52;;;;;;;27.88;19.23;;;486.80;1638.40;;;;;;5054157;28;20109;-61
2023/02/25 10:56:19;;;;;;;21.95;15.13;;;486.90;1638.40;;;;;;5053733;28;20025;-62
2023/02/25 10:58:58;;;;;;;28.95;13.60;;;486.80;1612.80;;;;;;5054093;28;20051;-62
2023/02/25 11:01:23;;;;;;;25.05;14.30;;;486.80;1612.80;;;;;;5054018;28;20657;-62
2023/02/25 11:03:59;;;;;;;19.77;13.45;;;486.70;1612.80;;;;;;5053724;28;20111;-62
2023/02/25 11:06:28;;;;;;;40.75;24.48;;;486.80;1638.40;;;;;;5053835;28;20040;-62
2023/02/25 11:08:57;;;;;;;17.05;12.90;;;486.90;1638.40;;;;;;5053934;28;20104;-62
2023/02/25 11:11:31;;;;;;;45.15;25.90;;;486.80;1612.80;;;;;;5053688;28;20029;-61
2023/02/25 11:14:08;;;;;;;80.97;53.42;;;486.80;1612.80;;;;;;5053599;28;20025;-62
2023/02/25 11:16:36;;;;;;;113.13;80.45;;;486.80;1612.80;;;;;;5053573;28;20053;-62
2023/02/25 11:19:13;;;;;;;28.42;15.52;;;486.80;1638.40;;;;;;5053755;28;20078;-61
2023/02/25 11:21:40;;;;;;;18.80;9.30;;;486.80;1612.80;;;;;;5053407;28;20024;-62
2023/02/25 11:24:32;;;;;;;16.55;8.20;;;486.70;1638.40;;;;;;5053616;28;20025;-62
2023/02/25 11:27:00;;;;;;;52.15;30.80;;;486.60;1612.80;;;;;;5053078;28;20090;-62
2023/02/25 11:29:33;;;;;;;20.70;11.45;;;486.60;1638.40;;;;;;5053188;28;20028;-62
2023/02/25 11:32:07;;;;;;;59.05;36.35;;;486.50;1612.80;;;;;;5053473;28;20035;-62
2023/02/25 11:34:43;;;;;;;96.90;64.00;;;486.50;1638.40;;;;;;5053248;28;20497;-61
2023/02/25 11:37:42;;;;;;;57.92;38.10;;;486.50;1612.80;;;;;;5053070;28;20036;-62
2023/02/25 11:40:32;;;;;;;24.02;18.88;;;486.50;1638.40;;;;;;5052934;28;20021;-62
2023/02/25 11:43:04;;;;;;;16.67;8.65;;;486.60;1638.40;;;;;;5052898;28;20061;-61
2023/02/25 11:45:46;;;;;;;17.73;8.32;;;486.60;1638.40;;;;;;5052844;28;20051;-62
2023/02/25 11:48:26;;;;;;;21.10;7.43;;;486.80;1638.40;;;;;;5052966;28;20059;-63
2023/02/25 11:50:56;;;;;;;21.77;14.07;;;486.80;1638.40;;;;;;5053055;28;20261;-61
2023/02/25 11:53:46;;;;;;;13.85;7.03;;;486.80;1612.80;;;;;;5053055;28;20036;-61
2023/02/25 11:56:17;;;;;;;16.52;8.63;;;486.80;1664.00;;;;;;5052992;28;20049;-61
2023/02/25 11:58:52;;;;;;;16.63;8.07;;;486.70;1638.40;;;;;;5052923;28;20051;-62
2023/02/25 12:01:45;;;;;;;17.17;9.70;;;486.80;1638.40;;;;;;5051082;28;20029;-62
2023/02/25 12:04:29;;;;;;;33.58;26.23;;;486.80;1638.40;;;;;;5052589;28;20560;-61
2023/02/25 12:07:01;;;;;;;12.57;7.47;;;487.00;1638.40;;;;;;5052489;28;20036;-61
2023/02/25 12:10:12;;;;;;;15.55;6.63;;;487.10;1638.40;;;;;;5052302;28;20048;-62
2023/02/25 12:13:01;;;;;;;46.13;32.25;;;487.00;1638.40;;;;;;5052372;28;20052;-61
2023/02/25 12:15:49;;;;;;;19.75;9.63;;;487.00;1612.80;;;;;;5052350;28;20025;-61